Time;durP1;ratioP1;P1;durP2;ratioP2;P2;SDS_P1;SDS_P2;PMS_P1;PMS_P2;Temp;Humidity;BMP_temperature;BMP_pressure;BME280_temperature;BME280_humidity;BME280_pressure;Samples;Min_cycle;Max_cycle;Signal;HPM_P1;HPM_P2
2023/07/19 00:01:23;;;;;;;;;;;;;;;8.01;100.00;99428.56;5037051;28;19917;-87
2023/07/19 00:03:48;;;;;;;;;;;;;;;7.98;100.00;99426.03;5041473;28;20019;-86
2023/07/19 00:06:13;;;;;;;;;;;;;;;8.08;100.00;99418.63;5043511;28;19917;-86
2023/07/19 00:08:39;;;;;;;;;;;;;;;8.04;100.00;99417.91;5046484;28;19927;-85
2023/07/19 00:11:04;;;;;;;;;;;;;;;8.08;100.00;99419.47;5046891;28;19966;-85
2023/07/19 00:13:29;;;;;;;;;;;;;;;8.17;100.00;99413.84;5064052;28;19916;-85
2023/07/19 00:15:54;;;;;;;;;;;;;;;8.04;100.00;99417.91;5064195;28;19929;-85
2023/07/19 00:18:20;;;;;;;;;;;;;;;7.98;100.00;99415.50;5063266;28;19946;-86
2023/07/19 00:20:45;;;;;;;;;;;;;;;8.06;100.00;99412.53;5064697;28;20007;-85
2023/07/19 00:23:10;;;;;;;;;;;;;;;8.14;100.00;99419.25;5045640;28;19920;-85
2023/07/19 00:25:36;;;;;;;;;;;;;;;8.08;100.00;99419.47;5064476;28;19928;-85
2023/07/19 00:28:01;;;;;;;;;;;;;;;8.12;100.00;99421.09;5062943;28;19927;-85
2023/07/19 00:30:26;;;;;;;;;;;;;;;8.12;100.00;99417.56;5063997;28;19970;-86
2023/07/19 00:32:51;;;;;;;;;;;;;;;8.09;100.00;99415.06;5057317;28;19921;-86
2023/07/19 00:35:17;;;;;;;;;;;;;;;8.06;100.00;99415.16;5041340;28;19921;-88
2023/07/19 00:37:43;;;;;;;;;;;;;;;8.10;100.00;99412.34;5037377;28;19974;-88
2023/07/19 05:15:28;;;;;;;;;;;;;;;5.29;100.00;99475.81;5003479;28;19999;-87
2023/07/19 05:17:53;;;;;;;;;;;;;;;5.30;100.00;99474.91;5004463;28;19922;-86
2023/07/19 05:20:18;;;;;;;;;;;;;;;5.38;100.00;99474.72;4986547;28;19968;-88
2023/07/19 05:22:43;;;;;;;;;;;;;;;5.32;100.00;99467.00;5003765;28;19925;-87
2023/07/19 05:25:09;;;;;;;;;;;;;;;5.32;100.00;99478.34;4999105;28;19964;-87
2023/07/19 05:27:34;;;;;;;;;;;;;;;5.43;100.00;99478.06;4984603;28;20438;-87
2023/07/19 05:30:00;;;;;;;;;;;;;;;5.35;100.00;99474.78;4986294;28;20403;-88
2023/07/19 05:32:26;;;;;;;;;;;;;;;5.28;100.00;99474.06;4986465;28;19929;-87
2023/07/19 05:34:51;;;;;;;;;;;;;;;5.36;100.00;99471.25;4981626;28;19918;-89
2023/07/19 05:37:16;;;;;;;;;;;;;;;5.37;100.00;99479.09;4991137;28;19969;-87
2023/07/19 05:39:42;;;;;;;;;;;;;;;5.37;100.00;99475.59;5004042;28;20387;-88
2023/07/19 05:42:07;;;;;;;;;;;;;;;5.28;100.00;99474.06;5002446;28;19929;-87
2023/07/19 05:44:32;;;;;;;;;;;;;;;5.31;100.00;99475.75;4985888;28;20365;-87
2023/07/19 05:46:57;;;;;;;;;;;;;;;5.34;100.00;99475.69;4985913;28;20339;-89
2023/07/19 05:49:22;;;;;;;;;;;;;;;5.25;100.00;99474.19;4993929;28;19924;-87
2023/07/19 05:51:48;;;;;;;;;;;;;;;5.74;100.00;99474.59;5003630;28;19932;-88
2023/07/19 05:54:14;;;;;;;;;;;;;;;6.09;100.00;99478.03;4999900;28;19918;-87
2023/07/19 05:56:39;;;;;;;;;;;;;;;6.28;100.00;99480.97;5003256;28;19972;-89
2023/07/19 05:59:04;;;;;;;;;;;;;;;6.32;100.00;99478.19;4979626;28;20005;-88
2023/07/19 06:01:29;;;;;;;;;;;;;;;6.51;100.00;99469.72;5002873;28;19928;-91
2023/07/19 06:03:55;;;;;;;;;;;;;;;6.65;100.00;99479.81;4980747;28;19925;-89
2023/07/19 06:06:20;;;;;;;;;;;;;;;6.72;100.00;99476.09;5003129;28;19972;-88
2023/07/19 06:08:45;;;;;;;;;;;;;;;6.84;100.00;99478.31;4986084;28;19917;-89
2023/07/19 06:11:10;;;;;;;;;;;;;;;7.00;100.00;99481.31;4993691;28;19929;-88
2023/07/19 06:13:36;;;;;;;;;;;;;;;6.97;100.00;99480.56;5001104;28;19922;-88
2023/07/19 06:16:01;;;;;;;;;;;;;;;7.00;100.00;99488.38;4983853;28;20025;-87
2023/07/19 06:18:26;;;;;;;;;;;;;;;7.05;100.00;99489.94;4985682;28;19917;-87
2023/07/19 06:20:51;;;;;;;;;;;;;;;7.07;100.00;99485.47;4999985;28;20385;-88
2023/07/19 06:23:17;;;;;;;;;;;;;;;7.15;100.00;99484.34;4999090;28;20384;-88
2023/07/19 06:25:42;;;;;;;;;;;;;;;7.15;100.00;99473.81;4984859;28;19933;-88
2023/07/19 06:28:07;;;;;;;;;;;;;;;7.18;100.00;99484.25;4992448;28;19918;-95
2023/07/19 06:30:32;;;;;;;;;;;;;;;7.18;100.00;99481.59;5004220;28;20341;-89
2023/07/19 06:32:58;;;;;;;;;;;;;;;7.22;100.00;99484.09;5002661;28;19917;-89
2023/07/19 06:35:23;;;;;;;;;;;;;;;7.19;100.00;99485.97;4994389;28;20438;-92
2023/07/19 06:37:48;;;;;;;;;;;;;;;7.27;100.00;99483.94;4984820;28;19925;-91
2023/07/19 06:40:15;;;;;;;;;;;;;;;7.28;100.00;99488.31;4992905;28;19921;-91
2023/07/19 06:42:42;;;;;;;;;;;;;;;7.32;100.00;99487.28;5000828;28;19918;-90
2023/07/19 06:45:08;;;;;;;;;;;;;;;7.38;100.00;99484.44;4993322;28;20324;-88
2023/07/19 06:47:33;;;;;;;;;;;;;;;7.39;100.00;99482.69;5002429;28;19913;-89
2023/07/19 06:49:59;;;;;;;;;;;;;;;7.38;100.00;99475.66;4985421;28;19918;-89
2023/07/19 06:52:24;;;;;;;;;;;;;;;7.51;100.00;99479.59;4989585;28;19918;-86
2023/07/19 06:54:49;;;;;;;;;;;;;;;7.60;100.00;99481.06;4993124;28;20004;-90
2023/07/19 06:57:15;;;;;;;;;;;;;;;7.50;100.00;99479.63;4983572;28;19922;-86
2023/07/19 06:59:40;;;;;;;;;;;;;;;7.59;100.00;99479.31;4992862;28;20069;-90
2023/07/19 07:45:55;;;;;;;;;;;;;;;7.51;100.00;99433.91;5016224;28;20442;-85
2023/07/19 07:48:20;;;;;;;;;;;;;;;7.54;100.00;99426.75;4998290;28;19976;-85
2023/07/19 07:50:49;;;;;;;;;;;;;;;7.62;100.00;99426.47;5015617;28;19926;-87
2023/07/19 07:53:14;;;;;;;;;;;;;;;10.07;100.00;99434.03;5014725;28;19918;-90
2023/07/19 07:55:40;;;;;;;;;;;;;;;8.77;100.00;99429.09;4993506;28;19917;-88
2023/07/19 07:58:05;;;;;;;;;;;;;;;13.89;100.00;99424.13;5015795;28;20373;-88
2023/07/19 08:00:31;;;;;;;;;;;;;;;13.19;100.00;99408.81;4996406;28;19955;-90
2023/07/19 08:02:56;;;;;;;;;;;;;;;13.61;100.00;99407.19;5015711;28;20322;-96
2023/07/19 08:05:21;;;;;;;;;;;;;;;14.07;100.00;99402.59;5001667;28;19918;-91
2023/07/19 08:07:46;;;;;;;;;;;;;;;14.42;100.00;99396.81;5000416;28;20363;-90
2023/07/19 08:10:12;;;;;;;;;;;;;;;15.15;100.00;99387.59;5013547;28;19918;-92
2023/07/19 08:12:37;;;;;;;;;;;;;;;15.61;100.00;99379.06;4999651;28;19925;-88
2023/07/19 08:15:03;;;;;;;;;;;;;;;13.92;100.00;99386.63;4997180;28;19922;-91
2023/07/19 08:17:28;;;;;;;;;;;;;;;12.57;100.00;99389.41;4995672;28;20372;-93
2023/07/19 08:19:53;;;;;;;;;;;;;;;11.94;100.00;99378.72;5014939;28;19922;-89
2023/07/19 08:22:25;;;;;;;;;;;;;;;11.55;100.00;99373.75;5015034;28;19928;-89
2023/07/19 08:24:51;;;;;;;;;;;;;;;11.31;100.00;99370.59;5014982;28;19918;-88
2023/07/19 08:27:16;;;;;;;;;;;;;;;11.09;100.00;99369.91;4996836;28;19921;-89
2023/07/19 08:29:41;;;;;;;;;;;;;;;10.92;100.00;99364.63;5013682;28;19970;-88
2023/07/19 08:32:07;;;;;;;;;;;;;;;10.83;100.00;99367.75;5015077;28;19921;-91
2023/07/19 08:34:32;;;;;;;;;;;;;;;10.72;100.00;99374.44;5015073;28;19921;-94
2023/07/19 08:36:59;;;;;;;;;;;;;;;10.67;100.00;99359.69;5015024;28;19949;-90
2023/07/19 08:39:27;;;;;;;;;;;;;;;10.67;100.00;99360.59;5016611;28;19918;-93
2023/07/19 08:41:52;;;;;;;;;;;;;;;10.65;100.00;99367.72;5014950;28;19918;-93
2023/07/19 08:44:17;;;;;;;;;;;;;;;10.58;100.00;99360.16;5016656;28;20004;-90
2023/07/19 08:46:43;;;;;;;;;;;;;;;10.62;100.00;99367.88;5031279;28;19978;-88
2023/07/19 08:49:09;;;;;;;;;;;;;;;10.60;100.00;99371.56;5008127;28;19943;-90
2023/07/19 08:51:37;;;;;;;;;;;;;;;10.53;100.00;99368.34;5006546;28;19918;-90
2023/07/19 08:54:03;;;;;;;;;;;;;;;10.50;100.00;99373.81;5006293;28;19921;-90
2023/07/19 08:56:29;;;;;;;;;;;;;;;11.09;100.00;99367.28;5014977;28;20383;-91
2023/07/19 08:58:54;;;;;;;;;;;;;;;11.52;100.00;99372.13;5022643;28;20055;-89
2023/07/19 09:01:20;;;;;;;;;;;;;;;11.75;100.00;99378.84;5023624;28;20015;-89
2023/07/19 09:03:45;;;;;;;;;;;;;;;11.12;100.00;99370.69;5009292;28;20380;-90
2023/07/19 09:06:10;;;;;;;;;;;;;;;10.85;100.00;99364.09;5015494;28;20280;-91
2023/07/19 09:08:37;;;;;;;;;;;;;;;10.74;100.00;99361.13;5015341;28;19917;-90
2023/07/19 09:11:02;;;;;;;;;;;;;;;10.71;100.00;99351.53;5007870;28;19921;-86
2023/07/19 09:13:29;;;;;;;;;;;;;;;10.57;100.00;99351.34;5009440;28;19917;-90
2023/07/19 09:15:55;;;;;;;;;;;;;;;10.57;100.00;99348.72;5013573;28;19943;-89
2023/07/19 09:18:20;;;;;;;;;;;;;;;10.52;100.00;99340.13;5023649;28;20020;-91
2023/07/19 09:20:45;;;;;;;;;;;;;;;10.46;100.00;99356.34;5023458;28;19921;-90
2023/07/19 09:23:10;;;;;;;;;;;;;;;10.45;100.00;99350.19;4996208;28;19913;-89
2023/07/19 09:25:52;;;;;;;;;;;;;;;10.42;100.00;99349.44;4999109;28;19927;-89
2023/07/19 09:28:23;;;;;;;;;;;;;;;10.38;100.00;99343.47;5005380;28;19925;-88
2023/07/19 09:30:58;;;;;;;;;;;;;;;10.37;100.00;99339.13;5023413;28;19972;-90
2023/07/19 09:33:27;;;;;;;;;;;;;;;10.35;100.00;99344.50;5022831;28;19917;-90
2023/07/19 09:35:52;;;;;;;;;;;;;;;10.49;100.00;99337.63;5013206;28;20379;-89
2023/07/19 09:38:18;;;;;;;;;;;;;;;11.19;100.00;99333.19;5015260;28;20026;-90
2023/07/19 09:40:44;;;;;;;;;;;;;;;11.61;100.00;99342.41;5024794;28;20376;-88
2023/07/19 09:43:10;;;;;;;;;;;;;;;11.60;100.00;99347.84;5019756;28;19924;-89
2023/07/19 09:45:36;;;;;;;;;;;;;;;10.89;100.00;99343.56;5022062;28;19995;-88
2023/07/19 09:48:02;;;;;;;;;;;;;;;10.69;100.00;99332.22;5014630;28;20300;-89
2023/07/19 09:50:28;;;;;;;;;;;;;;;10.62;100.00;99336.09;4995564;28;20380;-89
2023/07/19 09:52:55;;;;;;;;;;;;;;;10.58;100.00;99328.34;5000472;28;19989;-86
2023/07/19 09:55:20;;;;;;;;;;;;;;;10.56;100.00;99323.13;5005699;28;19928;-89
2023/07/19 09:57:48;;;;;;;;;;;;;;;10.51;100.00;99322.53;4995489;28;20323;-92
2023/07/19 10:00:13;;;;;;;;;;;;;;;10.51;100.00;99325.16;5017828;28;19960;-87
2023/07/19 10:02:39;;;;;;;;;;;;;;;10.48;100.00;99320.03;4995701;28;20375;-93
2023/07/19 10:05:06;;;;;;;;;;;;;;;10.42;100.00;99313.25;5000654;28;20300;-89
2023/07/19 10:07:31;;;;;;;;;;;;;;;10.41;100.00;99315.97;5024895;28;19923;-95
2023/07/19 10:10:01;;;;;;;;;;;;;;;10.41;100.00;99326.56;5022872;28;20016;-89
2023/07/19 10:12:27;;;;;;;;;;;;;;;10.43;100.00;99319.41;5023138;28;19925;-92
2023/07/19 10:14:52;;;;;;;;;;;;;;;10.41;100.00;99323.94;4995899;28;19921;-90
2023/07/19 10:17:18;;;;;;;;;;;;;;;10.38;100.00;99316.13;5014135;28;20402;-90
2023/07/19 10:19:56;;;;;;;;;;;;;;;10.32;100.00;99315.50;5014311;28;19917;-90
2023/07/19 10:22:22;;;;;;;;;;;;;;;10.30;100.00;99312.03;5001535;28;20313;-91
2023/07/19 10:25:03;;;;;;;;;;;;;;;10.26;100.00;99305.19;4995159;28;19926;-91
2023/07/19 10:27:35;;;;;;;;;;;;;;;10.30;100.00;99306.72;4997769;28;19917;-91
2023/07/19 10:30:04;;;;;;;;;;;;;;;10.26;100.00;99313.13;4998148;28;19924;-91
2023/07/19 10:32:29;;;;;;;;;;;;;;;10.23;100.00;99322.97;5022400;28;19924;-92
2023/07/19 10:34:54;;;;;;;;;;;;;;;10.92;100.00;99308.97;5004397;28;19917;-89
2023/07/19 10:37:20;;;;;;;;;;;;;;;11.42;100.00;99300.13;5022104;28;19996;-88
2023/07/19 10:39:45;;;;;;;;;;;;;;;11.67;100.00;99301.44;4994771;28;19921;-88
2023/07/19 10:42:11;;;;;;;;;;;;;;;11.13;100.00;99300.81;5032013;28;19967;-89
2023/07/19 10:44:36;;;;;;;;;;;;;;;11.58;100.00;99315.19;5012329;28;20384;-89
2023/07/19 10:47:01;;;;;;;;;;;;;;;11.84;100.00;99315.56;5022302;28;19925;-90
2023/07/19 10:49:27;;;;;;;;;;;;;;;11.81;100.00;99312.16;5024303;28;19921;-90
2023/07/19 10:51:57;;;;;;;;;;;;;;;11.09;100.00;99311.59;5021412;28;19921;-89
2023/07/19 10:54:22;;;;;;;;;;;;;;;10.92;100.00;99306.31;5025805;28;20019;-89
2023/07/19 10:56:49;;;;;;;;;;;;;;;11.55;100.00;99302.97;5023071;28;20439;-90
2023/07/19 10:59:14;;;;;;;;;;;;;;;11.90;100.00;99305.47;5020668;28;19927;-89
2023/07/19 11:01:40;;;;;;;;;;;;;;;11.98;100.00;99311.25;5012232;28;19996;-90
2023/07/19 11:04:07;;;;;;;;;;;;;;;11.20;100.00;99296.91;5022011;28;19917;-90
2023/07/19 11:06:33;;;;;;;;;;;;;;;10.92;100.00;99305.47;5004253;28;20393;-89
2023/07/19 11:09:02;;;;;;;;;;;;;;;10.80;100.00;99307.81;5003829;28;19964;-89
2023/07/19 11:11:27;;;;;;;;;;;;;;;11.20;100.00;99311.03;4994391;28;19925;-89
2023/07/19 11:13:53;;;;;;;;;;;;;;;11.68;100.00;99319.09;5028190;28;19924;-87
2023/07/19 11:16:18;;;;;;;;;;;;;;;11.94;100.00;99322.13;5031723;28;19921;-89
2023/07/19 11:18:43;;;;;;;;;;;;;;;11.32;100.00;99320.13;5031719;28;19917;-88
2023/07/19 11:21:10;;;;;;;;;;;;;;;10.99;100.00;99317.44;5013280;28;19917;-88
2023/07/19 11:23:41;;;;;;;;;;;;;;;10.77;100.00;99317.69;5013299;28;19917;-89
2023/07/19 11:26:10;;;;;;;;;;;;;;;10.71;100.00;99317.06;5031641;28;19924;-87
2023/07/19 11:28:45;;;;;;;;;;;;;;;10.53;100.00;99323.31;4997919;28;20303;-89
2023/07/19 11:31:25;;;;;;;;;;;;;;;10.43;100.00;99314.09;5030310;28;19917;-88
2023/07/19 11:33:56;;;;;;;;;;;;;;;10.46;100.00;99308.66;5031320;28;20283;-86
2023/07/19 11:36:21;;;;;;;;;;;;;;;10.45;100.00;99306.94;5030398;28;20265;-86
2023/07/19 11:38:49;;;;;;;;;;;;;;;10.38;100.00;99314.31;5031272;28;19928;-86
2023/07/19 11:41:16;;;;;;;;;;;;;;;10.32;100.00;99306.66;5009146;28;20285;-87
2023/07/19 11:43:45;;;;;;;;;;;;;;;10.31;100.00;99310.25;5029214;28;19921;-86
2023/07/19 11:46:10;;;;;;;;;;;;;;;10.30;100.00;99309.38;5030926;28;19925;-87
2023/07/19 11:48:35;;;;;;;;;;;;;;;10.25;100.00;99302.59;5031279;28;19979;-88
2023/07/19 11:51:00;;;;;;;;;;;;;;;10.32;100.00;99307.56;5031185;28;20011;-88
2023/07/19 11:53:26;;;;;;;;;;;;;;;10.34;100.00;99296.91;5031103;28;19960;-87
2023/07/19 11:55:52;;;;;;;;;;;;;;;10.24;100.00;99307.03;5030074;28;20464;-86
2023/07/19 11:58:18;;;;;;;;;;;;;;;10.17;100.00;99297.69;5030495;28;20043;-87
2023/07/19 12:00:43;;;;;;;;;;;;;;;10.48;100.00;99306.78;5008423;28;20375;-84
2023/07/19 12:03:08;;;;;;;;;;;;;;;11.19;100.00;99313.75;5033350;28;19913;-87
2023/07/19 12:05:34;;;;;;;;;;;;;;;11.50;100.00;99307.66;5034733;28;19921;-87
2023/07/19 12:07:59;;;;;;;;;;;;;;;11.26;100.00;99316.00;5034515;28;20060;-87
2023/07/19 12:10:26;;;;;;;;;;;;;;;10.74;100.00;99316.06;5012675;28;19920;-87
2023/07/19 12:12:53;;;;;;;;;;;;;;;10.63;100.00;99313.13;5034557;28;20330;-87
2023/07/19 12:15:18;;;;;;;;;;;;;;;10.50;100.00;99311.06;5033208;28;19971;-87
2023/07/19 12:17:43;;;;;;;;;;;;;;;10.80;100.00;99313.13;5033300;28;19921;-86
2023/07/19 12:20:09;;;;;;;;;;;;;;;11.50;100.00;99318.25;5034327;28;19929;-88
2023/07/19 12:22:35;;;;;;;;;;;;;;;11.81;100.00;99321.91;5034427;28;19917;-87
2023/07/19 12:25:01;;;;;;;;;;;;;;;11.30;100.00;99316.69;5011944;28;19940;-85
2023/07/19 12:27:27;;;;;;;;;;;;;;;10.86;100.00;99325.19;5012338;28;20383;-86
2023/07/19 12:29:52;;;;;;;;;;;;;;;10.62;100.00;99306.09;5011000;28;20328;-87
2023/07/19 12:32:18;;;;;;;;;;;;;;;10.93;100.00;99321.28;5033974;28;19921;-87
2023/07/19 12:34:46;;;;;;;;;;;;;;;11.54;100.00;99314.53;5034221;28;20283;-87
2023/07/19 12:37:16;;;;;;;;;;;;;;;11.84;100.00;99326.19;5028468;28;19972;-87
2023/07/19 12:39:41;;;;;;;;;;;;;;;11.34;100.00;99320.88;5030326;28;19917;-86
2023/07/19 12:42:07;;;;;;;;;;;;;;;10.83;100.00;99312.97;5015748;28;19979;-88
2023/07/19 12:44:34;;;;;;;;;;;;;;;10.64;100.00;99312.16;5030848;28;20272;-85
2023/07/19 12:46:59;;;;;;;;;;;;;;;10.60;100.00;99307.97;5032997;28;19940;-89
2023/07/19 12:49:24;;;;;;;;;;;;;;;10.46;100.00;99311.31;5013558;28;19921;-87
2023/07/19 12:51:50;;;;;;;;;;;;;;;10.39;100.00;99299.28;5013249;28;19930;-87
2023/07/19 12:54:15;;;;;;;;;;;;;;;10.32;100.00;99301.34;4994864;28;20020;-85
2023/07/19 12:56:40;;;;;;;;;;;;;;;10.32;100.00;99311.94;5004868;28;19925;-87
2023/07/19 12:59:06;;;;;;;;;;;;;;;10.26;100.00;99304.31;5003476;28;19925;-88
2023/07/19 13:01:34;;;;;;;;;;;;;;;10.22;100.00;99311.53;5015003;28;19921;-88
2023/07/19 13:04:00;;;;;;;;;;;;;;;10.19;100.00;99306.41;5020433;28;19968;-86
2023/07/19 13:06:25;;;;;;;;;;;;;;;10.19;100.00;99311.69;5002999;28;20348;-86
2023/07/19 13:08:50;;;;;;;;;;;;;;;10.22;100.00;99316.84;5015913;28;20389;-88
2023/07/19 13:11:16;;;;;;;;;;;;;;;10.16;100.00;99322.44;5014173;28;19922;-87
2023/07/19 13:13:42;;;;;;;;;;;;;;;10.15;100.00;99318.09;5019262;28;19980;-88
2023/07/19 13:16:07;;;;;;;;;;;;;;;10.22;100.00;99311.53;5003430;28;20003;-84
2023/07/19 13:18:33;;;;;;;;;;;;;;;10.19;100.00;99314.34;5021116;28;19926;-88
2023/07/19 13:20:58;;;;;;;;;;;;;;;10.20;100.00;99323.16;5021551;28;20372;-87
2023/07/19 13:23:23;;;;;;;;;;;;;;;10.13;100.00;99311.97;5002572;28;19917;-88
2023/07/19 13:25:49;;;;;;;;;;;;;;;10.16;100.00;99322.44;4999049;28;19921;-86
2023/07/19 13:28:14;;;;;;;;;;;;;;;10.10;100.00;99328.91;5000241;28;19917;-88
2023/07/19 13:30:40;;;;;;;;;;;;;;;10.05;100.00;99320.31;4996147;28;19959;-85
2023/07/19 13:33:05;;;;;;;;;;;;;;;9.98;100.00;99319.72;5022397;28;20280;-86
2023/07/19 13:35:32;;;;;;;;;;;;;;;10.00;100.00;99323.19;5006141;28;19917;-86
2023/07/19 13:37:57;;;;;;;;;;;;;;;10.14;100.00;99319.00;5005081;28;19921;-86
2023/07/19 13:40:23;;;;;;;;;;;;;;;10.83;100.00;99327.97;5021134;28;19932;-85
2023/07/19 13:42:48;;;;;;;;;;;;;;;11.26;100.00;99337.22;5016329;28;19924;-87
2023/07/19 13:45:13;;;;;;;;;;;;;;;11.55;100.00;99323.31;5004014;28;20369;-86
2023/07/19 13:47:38;;;;;;;;;;;;;;;10.86;100.00;99330.47;4999676;28;20253;-87
2023/07/19 13:50:04;;;;;;;;;;;;;;;10.46;100.00;99314.81;4999611;28;19925;-87
2023/07/19 13:52:29;;;;;;;;;;;;;;;10.53;100.00;99320.66;5015899;28;20011;-86
2023/07/19 13:54:54;;;;;;;;;;;;;;;10.48;100.00;99317.38;4992896;28;20285;-86
2023/07/19 13:57:20;;;;;;;;;;;;;;;10.20;100.00;99317.88;5000628;28;19924;-87
2023/07/19 13:59:45;;;;;;;;;;;;;;;10.24;100.00;99322.06;4986039;28;19930;-87
2023/07/19 14:02:10;;;;;;;;;;;;;;;9.99;100.00;99321.47;5009952;28;19924;-86
2023/07/19 14:04:35;;;;;;;;;;;;;;;10.05;100.00;99319.44;4996141;28;20016;-86
2023/07/19 14:07:01;;;;;;;;;;;;;;;9.98;100.00;99311.78;4997935;28;19937;-86
2023/07/19 14:09:29;;;;;;;;;;;;;;;9.92;100.00;99325.31;5000818;28;20347;-86
2023/07/19 14:11:55;;;;;;;;;;;;;;;9.89;100.00;99314.91;4993694;28;19922;-86
2023/07/19 14:14:20;;;;;;;;;;;;;;;9.89;100.00;99325.50;5017815;28;19967;-84
2023/07/19 14:16:51;;;;;;;;;;;;;;;9.82;100.00;99324.06;5004192;28;19971;-90
2023/07/19 14:19:17;;;;;;;;;;;;;;;9.82;100.00;99326.69;5000661;28;19971;-86
2023/07/19 14:21:42;;;;;;;;;;;;;;;9.81;100.00;99320.56;5004418;28;19961;-86
2023/07/19 14:24:07;;;;;;;;;;;;;;;9.83;100.00;99331.06;4997583;28;20304;-86
2023/07/19 14:26:33;;;;;;;;;;;;;;;9.82;100.00;99326.69;4998370;28;19980;-85
2023/07/19 14:28:59;;;;;;;;;;;;;;;9.76;100.00;99332.28;4996843;28;19937;-89
2023/07/19 14:31:25;;;;;;;;;;;;;;;9.74;100.00;99336.78;4995288;28;19932;-87
2023/07/19 14:33:51;;;;;;;;;;;;;;;9.89;100.00;99341.38;4989700;28;19943;-87
2023/07/19 14:36:16;;;;;;;;;;;;;;;9.93;100.00;99348.22;5015409;28;19925;-87
2023/07/19 14:38:45;;;;;;;;;;;;;;;9.77;100.00;99329.56;5009094;28;19935;-88
2023/07/19 14:41:11;;;;;;;;;;;;;;;9.79;100.00;99335.63;5003600;28;19921;-85
2023/07/19 14:43:37;;;;;;;;;;;;;;;9.75;100.00;99339.34;4991876;28;20044;-88
2023/07/19 14:46:03;;;;;;;;;;;;;;;9.75;100.00;99325.28;4986162;28;19982;-89
2023/07/19 14:48:29;;;;;;;;;;;;;;;9.79;100.00;99340.91;5002951;28;19927;-87
2023/07/19 14:50:54;;;;;;;;;;;;;;;9.81;100.00;99340.84;4984324;28;20004;-89
2023/07/19 14:53:19;;;;;;;;;;;;;;;9.87;100.00;99343.22;4985292;28;19929;-90
2023/07/19 14:55:44;;;;;;;;;;;;;;;9.99;100.00;99329.41;5001305;28;19925;-86
2023/07/19 14:58:10;;;;;;;;;;;;;;;10.07;100.00;99344.03;5004729;28;19921;-89
2023/07/19 15:00:35;;;;;;;;;;;;;;;9.85;100.00;99326.56;5002824;28;19925;-90
2023/07/19 15:03:00;;;;;;;;;;;;;;;9.71;100.00;99339.56;4984417;28;20427;-88
2023/07/19 15:05:28;;;;;;;;;;;;;;;9.87;100.00;99337.91;4986326;28;19917;-91
2023/07/19 15:07:53;;;;;;;;;;;;;;;10.59;100.00;99345.97;4986100;28;19917;-86
2023/07/19 15:10:19;;;;;;;;;;;;;;;11.00;100.00;99350.97;5002092;28;19928;-86
2023/07/19 15:12:44;;;;;;;;;;;;;;;11.09;100.00;99361.13;4998290;28;19968;-87
2023/07/19 15:15:10;;;;;;;;;;;;;;;10.44;100.00;99363.50;4999980;28;19968;-88
2023/07/19 15:17:35;;;;;;;;;;;;;;;10.23;100.00;99350.34;4997576;28;20399;-87
2023/07/19 15:20:00;;;;;;;;;;;;;;;10.12;100.00;99363.25;5001837;28;19944;-87
2023/07/19 15:22:26;;;;;;;;;;;;;;;10.10;100.00;99358.00;5001539;28;19965;-88
2023/07/19 15:24:51;;;;;;;;;;;;;;;9.91;100.00;99342.16;5003326;28;19965;-88
2023/07/19 15:27:16;;;;;;;;;;;;;;;10.55;100.00;99369.13;5000041;28;20008;-88
2023/07/19 15:29:42;;;;;;;;;;;;;;;11.03;100.00;99354.31;5001578;28;20296;-87
2023/07/19 15:32:07;;;;;;;;;;;;;;;11.32;100.00;99357.25;5002439;28;19961;-87
2023/07/19 15:34:32;;;;;;;;;;;;;;;10.62;100.00;99348.47;5001528;28;19928;-88
2023/07/19 15:36:57;;;;;;;;;;;;;;;10.16;100.00;99351.56;5003101;28;19921;-86
2023/07/19 15:39:23;;;;;;;;;;;;;;;10.02;100.00;99356.66;4989327;28;20016;-90
2023/07/19 15:41:49;;;;;;;;;;;;;;;9.95;100.00;99342.84;4988243;28;19917;-86
2023/07/19 15:44:14;;;;;;;;;;;;;;;9.88;100.00;99349.38;5003246;28;19922;-85
2023/07/19 15:46:39;;;;;;;;;;;;;;;9.92;100.00;99357.06;5022786;28;19921;-86
2023/07/19 15:49:05;;;;;;;;;;;;;;;9.91;100.00;99339.50;5025380;28;19922;-86
2023/07/19 15:51:30;;;;;;;;;;;;;;;9.89;100.00;99343.13;5018240;28;19933;-86
2023/07/19 15:53:55;;;;;;;;;;;;;;;9.75;100.00;99341.16;5004666;28;19921;-85
2023/07/19 15:56:21;;;;;;;;;;;;;;;9.66;100.00;99336.28;5002692;28;19926;-85
2023/07/19 15:58:47;;;;;;;;;;;;;;;9.72;100.00;99347.44;5000789;28;20288;-90
2023/07/19 16:01:12;;;;;;;;;;;;;;;9.91;100.00;99344.78;5018955;28;19925;-85
2023/07/19 16:03:38;;;;;;;;;;;;;;;10.16;100.00;99348.91;5005483;28;19921;-85
2023/07/19 16:06:03;;;;;;;;;;;;;;;9.89;100.00;99338.72;5023219;28;19933;-83
2023/07/19 16:08:28;;;;;;;;;;;;;;;9.60;100.00;99354.13;5015894;28;19949;-87
2023/07/19 16:10:54;;;;;;;;;;;;;;;9.61;100.00;99358.50;5015145;28;20372;-84
2023/07/19 16:13:20;;;;;;;;;;;;;;;9.77;100.00;99358.66;5014592;28;19925;-88
2023/07/19 16:15:45;;;;;;;;;;;;;;;9.78;100.00;99341.88;5022306;28;19921;-86
2023/07/19 16:18:10;;;;;;;;;;;;;;;9.73;100.00;99358.88;5024251;28;19967;-85
2023/07/19 16:20:36;;;;;;;;;;;;;;;9.73;100.00;99357.09;5023794;28;19957;-85
2023/07/19 16:23:01;;;;;;;;;;;;;;;9.61;100.00;99361.16;5023495;28;19922;-85
2023/07/19 16:25:26;;;;;;;;;;;;;;;9.51;100.00;99351.94;5025270;28;20007;-87
2023/07/19 16:27:51;;;;;;;;;;;;;;;9.47;100.00;99360.06;5005110;28;19948;-86
2023/07/19 16:30:17;;;;;;;;;;;;;;;9.43;100.00;99359.34;5020590;28;19992;-86
2023/07/19 16:32:42;;;;;;;;;;;;;;;9.63;100.00;99361.94;5024667;28;19923;-86
2023/07/19 16:35:08;;;;;;;;;;;;;;;9.67;100.00;99378.53;5019370;28;19925;-86
2023/07/19 16:37:33;;;;;;;;;;;;;;;9.55;100.00;99372.00;5016640;28;19952;-89
2023/07/19 16:39:58;;;;;;;;;;;;;;;9.61;100.00;99378.81;5021516;28;20016;-89
2023/07/19 16:42:23;;;;;;;;;;;;;;;9.68;100.00;99374.09;5007138;28;19921;-87
2023/07/19 16:44:49;;;;;;;;;;;;;;;9.47;100.00;99376.78;5016176;28;20419;-86
2023/07/19 16:47:14;;;;;;;;;;;;;;;9.68;100.00;99364.38;5024696;28;19921;-84
2023/07/19 16:49:39;;;;;;;;;;;;;;;9.39;100.00;99373.63;5004635;28;20501;-86
2023/07/19 16:52:07;;;;;;;;;;;;;;;9.42;100.00;99373.50;5004296;28;19967;-90
2023/07/19 16:54:33;;;;;;;;;;;;;;;9.51;100.00;99373.09;5006298;28;20020;-86
2023/07/19 16:56:58;;;;;;;;;;;;;;;9.45;100.00;99374.22;5024439;28;20008;-85
2023/07/19 16:59:23;;;;;;;;;;;;;;;9.42;100.00;99368.22;5022621;28;19999;-91
2023/07/19 17:01:49;;;;;;;;;;;;;;;9.56;100.00;99376.38;5008024;28;20353;-84
2023/07/19 17:04:15;;;;;;;;;;;;;;;9.38;100.00;99363.97;5022163;28;19917;-86
2023/07/19 17:06:40;;;;;;;;;;;;;;;9.19;100.00;99367.44;5006074;28;20412;-85
2023/07/19 17:09:05;;;;;;;;;;;;;;;9.39;100.00;99369.19;5013743;28;19918;-86
2023/07/19 17:11:30;;;;;;;;;;;;;;;10.24;100.00;99369.72;5005874;28;20386;-85
2023/07/19 17:13:55;;;;;;;;;;;;;;;10.68;100.00;99386.13;5004291;28;19918;-86
2023/07/19 17:16:21;;;;;;;;;;;;;;;10.80;100.00;99386.44;5023206;28;19956;-86
2023/07/19 17:18:46;;;;;;;;;;;;;;;10.18;100.00;99384.13;5013105;28;19929;-88
2023/07/19 17:21:12;;;;;;;;;;;;;;;9.66;100.00;99378.63;5016584;28;19917;-87
2023/07/19 17:23:38;;;;;;;;;;;;;;;9.77;100.00;99378.97;5023923;28;19921;-91
2023/07/19 17:26:04;;;;;;;;;;;;;;;9.55;100.00;99381.75;4995909;28;19917;-89
2023/07/19 17:28:29;;;;;;;;;;;;;;;9.55;100.00;99385.22;5016615;28;19925;-88
2023/07/19 17:30:55;;;;;;;;;;;;;;;9.78;100.00;99388.63;5017541;28;19925;-91
2023/07/19 17:33:20;;;;;;;;;;;;;;;9.84;100.00;99390.97;5023437;28;19917;-90
2023/07/19 17:35:46;;;;;;;;;;;;;;;9.50;100.00;99383.75;5017830;28;19924;-87
2023/07/19 17:38:11;;;;;;;;;;;;;;;9.41;100.00;99382.34;5023144;28;19924;-89
2023/07/19 17:40:36;;;;;;;;;;;;;;;9.31;100.00;99386.34;5024837;28;19917;-88
2023/07/19 17:43:02;;;;;;;;;;;;;;;9.22;100.00;99384.94;5017935;28;19917;-88
2023/07/19 17:45:27;;;;;;;;;;;;;;;9.32;100.00;99388.91;5022859;28;19925;-90
2023/07/19 17:47:52;;;;;;;;;;;;;;;9.29;100.00;99396.13;5024782;28;19917;-91
2023/07/19 17:50:18;;;;;;;;;;;;;;;9.28;100.00;99395.25;5022877;28;19948;-90
2023/07/19 17:52:45;;;;;;;;;;;;;;;9.22;100.00;99395.50;5015225;28;19980;-90